createdAt,value
2022-07-31T00:01:15.106Z,100460.09
2022-07-31T00:03:41.734Z,100450.22
2022-07-31T00:06:08.110Z,100461.25
2022-07-31T00:08:34.951Z,100455.00
2022-07-31T00:11:01.255Z,100457.72
2022-07-31T00:13:57.271Z,100464.00
2022-07-31T00:16:14.217Z,100452.44
2022-07-31T00:18:43.643Z,100457.53
2022-07-31T00:21:10.559Z,100458.06
2022-07-31T00:23:36.839Z,100461.56
2022-07-31T00:26:03.126Z,100463.28
2022-07-31T00:28:29.432Z,100456.84
2022-07-31T00:30:55.711Z,100455.13
2022-07-31T00:33:22.015Z,100454.38
2022-07-31T00:35:48.324Z,100455.34
2022-07-31T00:38:29.869Z,100457.94
2022-07-31T00:40:56.626Z,100460.50
2022-07-31T00:43:22.949Z,100447.78
2022-07-31T00:45:59.147Z,100453.53
2022-07-31T00:48:25.705Z,100452.66
2022-07-31T00:50:52.023Z,100456.69
2022-07-31T00:53:18.326Z,100456.69
2022-07-31T00:55:51.464Z,100463.66
2022-07-31T00:58:18.528Z,100463.81
2022-07-31T01:00:44.885Z,100455.81
2022-07-31T01:03:11.224Z,100464.13
2022-07-31T01:05:37.536Z,100456.81
2022-07-31T01:08:03.924Z,100461.16
2022-07-31T01:10:30.761Z,100465.09
2022-07-31T01:12:57.400Z,100464.56
2022-07-31T01:15:23.756Z,100464.84
2022-07-31T01:17:50.076Z,100455.72
2022-07-31T01:20:16.393Z,100463.44
2022-07-31T01:22:42.681Z,100457.56
2022-07-31T01:25:09.027Z,100464.31
2022-07-31T01:27:49.151Z,100458.75
2022-07-31T01:30:16.263Z,100459.88
2022-07-31T01:32:42.594Z,100468.59
2022-07-31T01:35:08.912Z,100468.47
2022-07-31T01:37:35.224Z,100476.44
2022-07-31T01:40:01.526Z,100467.44
2022-07-31T01:42:27.852Z,100467.59
2022-07-31T01:44:54.191Z,100458.75
2022-07-31T01:47:20.954Z,100464.22
2022-07-31T01:49:47.284Z,100457.22
2022-07-31T01:52:13.589Z,100454.38
2022-07-31T01:54:39.905Z,100456.22
2022-07-31T01:57:06.215Z,100459.50
2022-07-31T01:59:32.544Z,100461.50
2022-07-31T02:01:59.184Z,100459.09
2022-07-31T02:04:26.014Z,100456.53
2022-07-31T02:06:52.306Z,100460.69
2022-07-31T02:09:18.611Z,100457.81
2022-07-31T02:11:54.654Z,100451.72
2022-07-31T02:14:21.440Z,100449.44
2022-07-31T02:16:48.187Z,100439.00
2022-07-31T02:19:14.900Z,100442.59
2022-07-31T02:21:41.196Z,100438.88
2022-07-31T02:24:07.502Z,100446.59
2022-07-31T02:26:33.790Z,100434.75
2022-07-31T02:29:00.100Z,100434.75
2022-07-31T02:31:26.531Z,100433.78
2022-07-31T02:33:52.839Z,100427.91
2022-07-31T02:36:19.153Z,100424.78
2022-07-31T02:38:45.450Z,100426.09
2022-07-31T02:41:11.758Z,100429.47
2022-07-31T02:43:38.068Z,100424.50
2022-07-31T02:46:04.354Z,100424.50
2022-07-31T02:48:30.659Z,100419.25
2022-07-31T02:50:56.978Z,100421.50
2022-07-31T02:53:23.292Z,100416.38
2022-07-31T02:55:49.602Z,100412.53
2022-07-31T02:58:15.923Z,100417.81
2022-07-31T03:00:42.271Z,100416.66
2022-07-31T03:03:08.656Z,100406.97
2022-07-31T03:05:34.944Z,100404.84
2022-07-31T03:08:01.263Z,100407.56
2022-07-31T03:10:27.550Z,100401.56
2022-07-31T03:12:53.870Z,100402.13
2022-07-31T03:15:20.155Z,100395.84
2022-07-31T03:17:46.586Z,100405.53
2022-07-31T03:20:12.870Z,100404.56
2022-07-31T03:22:39.884Z,100403.25
2022-07-31T03:25:06.183Z,100396.56
2022-07-31T03:27:32.500Z,100403.25
2022-07-31T03:29:58.788Z,100395.13
2022-07-31T03:32:25.094Z,100388.72
2022-07-31T03:34:51.390Z,100389.28
2022-07-31T03:37:17.688Z,100405.38
2022-07-31T03:39:43.984Z,100400.25
2022-07-31T03:42:13.107Z,100400.97
2022-07-31T03:44:45.616Z,100401.81
2022-07-31T03:47:11.969Z,100402.69
2022-07-31T03:49:38.330Z,100400.13
2022-07-31T03:52:08.577Z,100400.97
2022-07-31T03:54:37.840Z,100405.66
2022-07-31T03:57:04.130Z,100400.84
2022-07-31T03:59:32.376Z,100407.81
2022-07-31T04:02:06.810Z,100402.97
2022-07-31T04:04:33.226Z,100410.94
2022-07-31T04:06:59.544Z,100399.69
2022-07-31T04:09:25.830Z,100402.13
2022-07-31T04:11:52.125Z,100396.97
2022-07-31T04:14:18.434Z,100414.94
2022-07-31T04:16:44.714Z,100413.81
2022-07-31T04:19:11.017Z,100408.53
2022-07-31T04:21:37.348Z,100408.81
2022-07-31T04:24:03.672Z,100415.78
2022-07-31T04:26:29.983Z,100421.50
2022-07-31T04:28:56.277Z,100415.09
2022-07-31T04:31:23.397Z,100418.94
2022-07-31T04:33:54.527Z,100415.81
2022-07-31T04:36:29.668Z,100419.34
2022-07-31T04:38:57.008Z,100417.78
2022-07-31T04:41:23.331Z,100420.72
2022-07-31T04:43:49.610Z,100415.69
2022-07-31T04:46:17.186Z,100417.19
2022-07-31T04:48:44.274Z,100418.72
2022-07-31T04:51:11.248Z,100422.81
2022-07-31T04:53:41.294Z,100420.78
2022-07-31T04:56:26.055Z,100425.69
2022-07-31T04:58:52.378Z,100420.03
2022-07-31T05:01:18.702Z,100423.22
2022-07-31T05:03:45.048Z,100433.22
2022-07-31T05:06:11.390Z,100428.03
2022-07-31T05:08:38.327Z,100433.50
2022-07-31T05:11:23.028Z,100433.25
2022-07-31T05:13:49.568Z,100437.53
2022-07-31T05:16:15.864Z,100432.50
2022-07-31T05:18:42.209Z,100438.53
2022-07-31T05:21:08.619Z,100434.00
2022-07-31T05:23:34.922Z,100443.25
2022-07-31T05:26:01.889Z,100440.38
2022-07-31T05:28:30.041Z,100437.75
2022-07-31T05:30:56.595Z,100434.81
2022-07-31T05:33:22.890Z,100430.25
2022-07-31T05:35:49.206Z,100436.66
2022-07-31T05:38:15.500Z,100436.53
2022-07-31T05:40:41.809Z,100438.75
2022-07-31T05:43:08.118Z,100430.84
2022-07-31T05:45:34.419Z,100431.19
2022-07-31T05:48:00.710Z,100438.53
2022-07-31T05:50:27.002Z,100444.00
2022-07-31T05:52:53.301Z,100441.81
2022-07-31T05:55:19.583Z,100443.53
2022-07-31T05:57:45.866Z,100437.22
2022-07-31T06:00:12.183Z,100439.59
2022-07-31T06:02:38.480Z,100431.94
2022-07-31T06:05:04.772Z,100441.31
2022-07-31T06:07:31.057Z,100433.28
2022-07-31T06:09:57.376Z,100433.66
2022-07-31T06:12:23.660Z,100429.84
2022-07-31T06:14:49.966Z,100432.44
2022-07-31T06:17:16.274Z,100421.00
2022-07-31T06:19:42.604Z,100423.75
2022-07-31T06:22:09.207Z,100423.22
2022-07-31T06:24:35.715Z,100416.41
2022-07-31T06:27:04.663Z,100422.47
2022-07-31T06:29:41.313Z,100417.00
2022-07-31T06:32:08.843Z,100420.72
2022-07-31T06:34:35.157Z,100417.00
2022-07-31T06:37:01.473Z,100425.50
2022-07-31T06:39:28.639Z,100409.88
2022-07-31T06:42:14.069Z,100406.66
2022-07-31T06:44:45.954Z,100411.38
2022-07-31T06:47:13.725Z,100404.19
2022-07-31T06:49:42.284Z,100413.91
2022-07-31T06:52:08.654Z,100412.50
2022-07-31T06:54:34.971Z,100411.28
2022-07-31T06:57:01.258Z,100414.50
2022-07-31T06:59:39.942Z,100405.56
2022-07-31T07:02:07.251Z,100413.91
2022-07-31T07:04:56.481Z,100411.41
2022-07-31T07:07:20.422Z,100420.03
2022-07-31T07:09:46.735Z,100420.16
2022-07-31T07:12:16.659Z,100422.78
2022-07-31T07:14:43.396Z,100421.16
2022-07-31T07:17:09.691Z,100418.06
2022-07-31T07:19:36.013Z,100414.34
2022-07-31T07:22:02.730Z,100413.44
2022-07-31T07:24:29.165Z,100407.97
2022-07-31T07:26:55.460Z,100392.47
2022-07-31T07:29:21.800Z,100404.22
2022-07-31T07:31:48.102Z,100400.25
2022-07-31T07:34:14.425Z,100402.25
2022-07-31T07:36:40.863Z,100404.59
2022-07-31T07:39:07.284Z,100399.81
2022-07-31T07:41:33.583Z,100406.28
2022-07-31T07:43:59.893Z,100412.53
2022-07-31T07:46:26.217Z,100398.13
2022-07-31T07:48:52.877Z,100401.22
2022-07-31T07:51:19.431Z,100394.84
2022-07-31T07:53:45.715Z,100390.38
2022-07-31T07:56:12.016Z,100387.13
2022-07-31T07:58:38.318Z,100383.06
2022-07-31T08:01:04.722Z,100383.22
2022-07-31T08:03:48.885Z,100390.31
2022-07-31T08:06:17.408Z,100388.44
2022-07-31T08:08:43.692Z,100388.44
2022-07-31T08:11:09.980Z,100386.00
2022-07-31T08:13:36.285Z,100377.63
2022-07-31T08:16:05.301Z,100374.38
2022-07-31T08:18:31.822Z,100375.59
2022-07-31T08:20:58.111Z,100368.81
2022-07-31T08:23:24.418Z,100376.47
2022-07-31T08:25:51.340Z,100365.88
2022-07-31T08:28:19.354Z,100372.44
2022-07-31T08:30:50.266Z,100362.09
2022-07-31T08:33:16.581Z,100361.53
2022-07-31T08:35:44.787Z,100357.56
2022-07-31T08:38:16.909Z,100355.53
2022-07-31T08:40:43.818Z,100356.75
2022-07-31T08:43:25.162Z,100355.38
2022-07-31T08:45:56.817Z,100351.56
2022-07-31T08:48:23.114Z,100353.44
2022-07-31T08:50:53.681Z,100358.34
2022-07-31T08:53:20.225Z,100358.72
2022-07-31T08:55:56.200Z,100356.47
2022-07-31T08:58:23.900Z,100349.25
2022-07-31T09:00:51.131Z,100351.81
2022-07-31T09:03:17.534Z,100356.19
2022-07-31T09:05:43.842Z,100351.72
2022-07-31T09:08:14.557Z,100344.84
2022-07-31T09:10:45.049Z,100354.38
2022-07-31T09:13:15.512Z,100346.69
2022-07-31T09:15:41.858Z,100339.78
2022-07-31T09:18:08.142Z,100340.66
2022-07-31T09:20:34.431Z,100330.88
2022-07-31T09:23:00.728Z,100325.69
2022-07-31T09:25:27.027Z,100323.38
2022-07-31T09:27:53.314Z,100328.63
2022-07-31T09:30:19.614Z,100321.03
2022-07-31T09:32:46.023Z,100322.09
2022-07-31T09:35:12.405Z,100323.38
2022-07-31T09:37:39.242Z,100327.16
2022-07-31T09:40:05.506Z,100331.81
2022-07-31T09:42:34.280Z,100316.56
2022-07-31T09:45:00.590Z,100321.22
2022-07-31T09:47:27.935Z,100313.63
2022-07-31T09:49:54.487Z,100309.78
2022-07-31T09:52:20.790Z,100305.53
2022-07-31T09:54:47.718Z,100303.84
2022-07-31T09:57:14.091Z,100306.94
2022-07-31T09:59:40.389Z,100315.59
2022-07-31T10:02:06.691Z,100298.44
2022-07-31T10:04:33.002Z,100307.59
2022-07-31T10:06:59.328Z,100296.72
2022-07-31T10:09:25.618Z,100303.38
2022-07-31T10:11:52.095Z,100300.44
2022-07-31T10:14:18.382Z,100291.88
2022-07-31T10:16:44.681Z,100281.28
2022-07-31T10:19:11.605Z,100293.25
2022-07-31T10:21:37.925Z,100292.00
2022-07-31T10:24:04.249Z,100289.19
2022-07-31T10:26:57.743Z,100291.38
2022-07-31T10:29:17.249Z,100291.16
2022-07-31T10:31:43.534Z,100303.44
2022-07-31T10:34:09.855Z,100296.72
2022-07-31T10:36:37.151Z,100302.59
2022-07-31T10:39:03.485Z,100289.09
2022-07-31T10:41:32.304Z,100293.50
2022-07-31T10:43:58.594Z,100284.59
2022-07-31T10:46:24.889Z,100285.91
2022-07-31T10:48:51.249Z,100286.13
2022-07-31T10:51:17.669Z,100286.97
2022-07-31T10:53:50.918Z,100279.28
2022-07-31T10:56:18.957Z,100281.03
2022-07-31T10:58:45.278Z,100276.44
2022-07-31T11:01:12.139Z,100267.69
2022-07-31T11:03:46.292Z,100273.94
2022-07-31T11:06:12.594Z,100275.69
2022-07-31T11:08:38.904Z,100273.69
2022-07-31T11:11:05.258Z,100273.50
2022-07-31T11:13:36.832Z,100280.19
2022-07-31T11:16:03.596Z,100279.13
2022-07-31T11:18:34.343Z,100263.88
2022-07-31T11:21:13.548Z,100264.63
2022-07-31T11:23:57.720Z,100256.19
2022-07-31T11:26:32.838Z,100247.88
2022-07-31T11:30:01.031Z,100241.72
2022-07-31T11:31:48.754Z,100247.03
2022-07-31T11:34:15.084Z,100249.19
2022-07-31T11:36:41.362Z,100237.38
2022-07-31T11:39:09.305Z,100237.28
2022-07-31T11:41:40.453Z,100246.91
2022-07-31T11:44:10.998Z,100248.00
2022-07-31T11:46:38.000Z,100251.97
2022-07-31T11:49:04.953Z,100259.09
2022-07-31T11:51:31.279Z,100255.78
2022-07-31T11:53:57.957Z,100244.69
2022-07-31T11:56:24.288Z,100247.13
2022-07-31T11:58:50.665Z,100245.88
2022-07-31T12:01:16.968Z,100246.63
2022-07-31T12:03:43.284Z,100248.31
2022-07-31T12:06:09.905Z,100237.44
2022-07-31T12:08:36.575Z,100239.88
2022-07-31T12:11:02.856Z,100243.97
2022-07-31T12:13:29.160Z,100237.44
2022-07-31T12:15:55.473Z,100230.19
2022-07-31T12:18:21.788Z,100215.84
2022-07-31T12:20:48.082Z,100214.41
2022-07-31T12:23:41.161Z,100213.00
2022-07-31T12:26:02.638Z,100214.91
2022-07-31T12:28:28.943Z,100215.53
2022-07-31T12:30:55.243Z,100203.63
2022-07-31T12:33:21.554Z,100204.97
2022-07-31T12:35:55.787Z,100205.72
2022-07-31T12:38:38.294Z,100210.00
2022-07-31T12:41:07.732Z,100201.13
2022-07-31T12:43:35.851Z,100206.34
2022-07-31T12:46:05.186Z,100196.41
2022-07-31T12:48:36.264Z,100192.63
2022-07-31T12:51:05.032Z,100198.31
2022-07-31T12:53:31.329Z,100197.63
2022-07-31T12:55:57.662Z,100186.81
2022-07-31T12:58:23.975Z,100183.16
2022-07-31T13:00:50.395Z,100184.00
2022-07-31T13:03:16.691Z,100177.06
2022-07-31T13:05:42.992Z,100179.59
2022-07-31T13:08:09.286Z,100174.47
2022-07-31T13:10:35.645Z,100170.31
2022-07-31T13:13:01.955Z,100167.00
2022-07-31T13:15:31.306Z,100170.03
2022-07-31T13:17:57.596Z,100160.53
2022-07-31T13:20:23.912Z,100157.75
2022-07-31T13:22:50.205Z,100152.81
2022-07-31T13:25:16.832Z,100149.03
2022-07-31T13:27:43.079Z,100152.69
2022-07-31T13:30:09.379Z,100151.09
2022-07-31T13:32:35.700Z,100158.47
2022-07-31T13:35:26.485Z,100150.72
2022-07-31T13:37:48.785Z,100143.81
2022-07-31T13:40:15.305Z,100139.91
2022-07-31T13:42:41.591Z,100128.81
2022-07-31T13:45:08.823Z,100138.72
2022-07-31T13:47:50.444Z,100129.09
2022-07-31T13:50:18.154Z,100131.44
2022-07-31T13:52:44.678Z,100130.75
2022-07-31T13:55:11.022Z,100129.75
2022-07-31T13:57:37.342Z,100124.56
2022-07-31T14:00:03.642Z,100124.41
2022-07-31T14:02:30.007Z,100126.94
2022-07-31T14:04:56.362Z,100121.56
2022-07-31T14:07:23.762Z,100123.13
2022-07-31T14:10:10.051Z,100116.72
2022-07-31T14:12:36.336Z,100119.84
2022-07-31T14:15:04.367Z,100119.38
2022-07-31T14:17:30.865Z,100117.94
2022-07-31T14:19:57.181Z,100124.88
2022-07-31T14:22:23.673Z,100132.44
2022-07-31T14:24:50.800Z,100127.53
2022-07-31T14:27:17.732Z,100129.75
2022-07-31T14:29:44.234Z,100133.41
2022-07-31T14:32:10.524Z,100125.06
2022-07-31T14:34:36.811Z,100115.91
2022-07-31T14:37:03.373Z,100117.06
2022-07-31T14:39:29.980Z,100113.91
2022-07-31T14:41:56.285Z,100120.63
2022-07-31T14:44:28.468Z,100111.41
2022-07-31T14:46:55.385Z,100112.47
2022-07-31T14:49:21.934Z,100109.75
2022-07-31T14:51:48.297Z,100113.53
2022-07-31T14:54:14.634Z,100115.34
2022-07-31T14:57:00.127Z,100120.56
2022-07-31T14:59:27.143Z,100111.47
2022-07-31T15:01:53.434Z,100106.25
2022-07-31T15:04:19.736Z,100107.09
2022-07-31T15:06:56.359Z,100109.31
2022-07-31T15:09:32.291Z,100113.47
2022-07-31T15:12:01.099Z,100108.09
2022-07-31T15:14:27.928Z,100107.69
2022-07-31T15:16:54.254Z,100112.28
2022-07-31T15:19:20.635Z,100102.00
2022-07-31T15:22:09.505Z,100099.81
2022-07-31T15:24:33.133Z,100103.53
2022-07-31T15:26:59.438Z,100096.91
2022-07-31T15:29:25.726Z,100098.28
2022-07-31T15:32:11.940Z,100102.44
2022-07-31T15:34:38.254Z,100090.22
2022-07-31T15:37:04.715Z,100097.88
2022-07-31T15:39:31.157Z,100095.72
2022-07-31T15:41:58.089Z,100094.22
2022-07-31T15:44:24.375Z,100100.88
2022-07-31T15:46:50.663Z,100098.88
2022-07-31T15:49:16.987Z,100097.66
2022-07-31T15:51:43.324Z,100091.84
2022-07-31T15:54:09.678Z,100100.72
2022-07-31T15:56:35.972Z,100099.03
2022-07-31T15:59:02.270Z,100095.06
2022-07-31T16:01:28.639Z,100100.25
2022-07-31T16:03:55.000Z,100098.09
2022-07-31T16:06:28.027Z,100092.19
2022-07-31T16:08:58.468Z,100090.31
2022-07-31T16:11:24.909Z,100097.41
2022-07-31T16:14:11.217Z,100095.75
2022-07-31T16:16:37.561Z,100093.00
2022-07-31T16:19:04.208Z,100087.53
2022-07-31T16:21:30.470Z,100087.22
2022-07-31T16:23:56.846Z,100080.31
2022-07-31T16:26:23.146Z,100089.28
2022-07-31T16:28:53.725Z,100079.66
2022-07-31T16:31:29.952Z,100067.47
2022-07-31T16:33:57.153Z,100076.06
2022-07-31T16:36:24.704Z,100077.56
2022-07-31T16:39:10.941Z,100067.78
2022-07-31T16:41:38.675Z,100074.19
2022-07-31T16:44:21.063Z,100073.88
2022-07-31T16:46:51.384Z,100074.00
2022-07-31T16:49:35.448Z,100084.25
2022-07-31T16:52:03.305Z,100073.53
2022-07-31T16:54:29.640Z,100071.19
2022-07-31T16:56:55.955Z,100062.34
2022-07-31T16:59:22.239Z,100059.72
2022-07-31T17:01:58.007Z,100067.78
2022-07-31T17:04:27.094Z,100065.59
2022-07-31T17:06:53.413Z,100063.56
2022-07-31T17:09:19.720Z,100059.44
2022-07-31T17:11:46.024Z,100056.75
2022-07-31T17:14:12.323Z,100061.94
2022-07-31T17:16:41.249Z,100060.75
2022-07-31T17:19:10.016Z,100055.44
2022-07-31T17:21:43.773Z,100056.47
2022-07-31T17:24:10.316Z,100054.06
2022-07-31T17:26:42.472Z,100053.88
2022-07-31T17:29:08.770Z,100056.31
2022-07-31T17:31:35.084Z,100057.63
2022-07-31T17:34:03.805Z,100058.97
2022-07-31T17:36:35.586Z,100062.91
2022-07-31T17:39:01.880Z,100067.84
2022-07-31T17:41:28.186Z,100068.41
2022-07-31T17:43:54.594Z,100072.63
2022-07-31T17:46:28.157Z,100062.13
2022-07-31T17:49:01.356Z,100060.78
2022-07-31T17:51:27.904Z,100052.22
2022-07-31T17:54:00.306Z,100062.56
2022-07-31T17:56:26.898Z,100056.75
2022-07-31T17:58:53.256Z,100057.84
2022-07-31T18:01:19.628Z,100063.88
2022-07-31T18:03:46.111Z,100063.94
2022-07-31T18:06:12.398Z,100067.50
2022-07-31T18:08:38.693Z,100065.00
2022-07-31T18:11:06.444Z,100065.22
2022-07-31T18:13:39.298Z,100062.31
2022-07-31T18:16:14.744Z,100064.34
2022-07-31T18:18:41.035Z,100059.47
2022-07-31T18:21:07.334Z,100060.94
2022-07-31T18:23:33.624Z,100062.00
2022-07-31T18:26:00.366Z,100064.97
2022-07-31T18:28:26.595Z,100068.78
2022-07-31T18:30:52.888Z,100072.41
2022-07-31T18:33:19.196Z,100076.84
2022-07-31T18:35:45.495Z,100069.69
2022-07-31T18:38:11.783Z,100067.13
2022-07-31T18:40:38.074Z,100072.25
2022-07-31T18:43:05.968Z,100076.09
2022-07-31T18:45:32.268Z,100072.25
2022-07-31T18:47:58.588Z,100069.75
2022-07-31T18:51:01.667Z,100066.75
2022-07-31T18:53:11.352Z,100073.97
2022-07-31T18:55:37.651Z,100079.91
2022-07-31T18:58:03.945Z,100072.72
2022-07-31T19:00:30.562Z,100080.34
2022-07-31T19:02:56.872Z,100070.44
2022-07-31T19:05:23.291Z,100079.97
2022-07-31T19:07:49.612Z,100084.59
2022-07-31T19:10:29.383Z,100086.97
2022-07-31T19:12:57.775Z,100078.28
2022-07-31T19:15:24.087Z,100087.19
2022-07-31T19:17:50.536Z,100086.19
2022-07-31T19:20:56.170Z,100096.75
2022-07-31T19:23:03.754Z,100090.84
2022-07-31T19:26:02.247Z,100093.81
2022-07-31T19:28:20.551Z,100100.59
2022-07-31T19:30:53.003Z,100096.59
2022-07-31T19:33:19.698Z,100096.41
2022-07-31T19:35:58.313Z,100101.91
2022-07-31T19:38:26.901Z,100105.06
2022-07-31T19:40:53.216Z,100102.75
2022-07-31T19:43:20.301Z,100099.38
2022-07-31T19:45:58.718Z,100102.56
2022-07-31T19:48:33.175Z,100100.63
2022-07-31T19:50:59.470Z,100100.63
2022-07-31T19:53:25.794Z,100096.63
2022-07-31T19:55:52.113Z,100107.41
2022-07-31T19:58:18.423Z,100108.25
2022-07-31T20:00:44.889Z,100108.91
2022-07-31T20:03:11.227Z,100107.63
2022-07-31T20:05:37.657Z,100109.56
2022-07-31T20:08:03.954Z,100106.59
2022-07-31T20:10:30.244Z,100102.19
2022-07-31T20:12:56.535Z,100095.41
2022-07-31T20:15:22.824Z,100103.00
2022-07-31T20:17:49.168Z,100089.91
2022-07-31T20:20:16.358Z,100094.78
2022-07-31T20:22:42.779Z,100093.94
2022-07-31T20:25:12.051Z,100096.25
2022-07-31T20:27:46.579Z,100097.09
2022-07-31T20:30:12.896Z,100078.09
2022-07-31T20:32:39.193Z,100086.34
2022-07-31T20:35:47.306Z,100083.59
2022-07-31T20:38:01.081Z,100081.47
2022-07-31T20:40:28.766Z,100085.91
2022-07-31T20:42:55.011Z,100084.00
2022-07-31T21:02:17.386Z,100076.63
2022-07-31T21:04:43.673Z,100082.72
2022-07-31T21:07:11.592Z,100076.34
2022-07-31T21:09:38.490Z,100075.72
2022-07-31T21:12:06.527Z,100079.53
2022-07-31T21:14:34.146Z,100079.53
2022-07-31T21:17:00.429Z,100073.19
2022-07-31T21:19:26.721Z,100070.44
2022-07-31T21:21:53.487Z,100068.09
2022-07-31T21:24:19.734Z,100059.03
2022-07-31T21:26:46.035Z,100065.34
2022-07-31T21:29:17.279Z,100068.34
2022-07-31T21:31:49.156Z,100069.59
2022-07-31T21:34:16.566Z,100065.38
2022-07-31T21:36:42.861Z,100068.31
2022-07-31T21:39:09.153Z,100071.69
2022-07-31T21:41:45.171Z,100069.59
2022-07-31T21:44:12.744Z,100072.31
2022-07-31T21:46:46.091Z,100068.94
2022-07-31T21:49:20.174Z,100066.81
2022-07-31T21:51:46.580Z,100075.50
2022-07-31T21:54:15.483Z,100076.66
2022-07-31T21:56:42.047Z,100083.75
2022-07-31T21:59:08.327Z,100085.22
2022-07-31T22:01:35.105Z,100089.44
2022-07-31T22:04:01.534Z,100080.91
2022-07-31T22:06:57.299Z,100081.03
2022-07-31T22:09:26.538Z,100087.50
2022-07-31T22:12:01.293Z,100085.47
2022-07-31T22:14:28.038Z,100084.19
2022-07-31T22:16:54.323Z,100087.34
2022-07-31T22:19:20.991Z,100084.97
2022-07-31T22:21:47.328Z,100092.44
2022-07-31T22:24:14.135Z,100085.03
2022-07-31T22:27:00.324Z,100091.59
2022-07-31T22:29:26.668Z,100092.22
2022-07-31T22:31:54.003Z,100088.16
2022-07-31T22:34:37.339Z,100092.41
2022-07-31T22:37:04.228Z,100092.41
2022-07-31T22:39:30.544Z,100086.50
2022-07-31T22:42:00.340Z,100090.53
2022-07-31T22:44:26.917Z,100092.59
2022-07-31T22:46:53.222Z,100096.56
2022-07-31T22:49:19.593Z,100094.03
2022-07-31T22:51:46.770Z,100104.41
2022-07-31T22:54:13.122Z,100108.84
2022-07-31T22:56:39.434Z,100094.28
2022-07-31T22:59:05.767Z,100091.47
2022-07-31T23:01:32.068Z,100100.91
2022-07-31T23:03:58.370Z,100100.50
2022-07-31T23:06:31.290Z,100091.47
2022-07-31T23:08:58.837Z,100096.75
2022-07-31T23:11:25.134Z,100092.16
2022-07-31T23:13:51.452Z,100085.59
2022-07-31T23:16:17.784Z,100084.75
2022-07-31T23:18:44.081Z,100072.69
2022-07-31T23:21:10.454Z,100065.34
2022-07-31T23:23:36.840Z,100066.38
2022-07-31T23:26:03.163Z,100066.38
2022-07-31T23:28:29.467Z,100075.50
2022-07-31T23:30:55.769Z,100068.09
2022-07-31T23:33:22.070Z,100071.13
2022-07-31T23:35:48.378Z,100063.53
2022-07-31T23:38:14.701Z,100064.19
2022-07-31T23:40:41.002Z,100067.53
2022-07-31T23:43:07.316Z,100069.84
2022-07-31T23:45:34.908Z,100059.69
2022-07-31T23:48:01.271Z,100074.59
2022-07-31T23:50:27.565Z,100070.56
2022-07-31T23:52:53.888Z,100065.69
2022-07-31T23:55:20.183Z,100064.84
2022-07-31T23:57:46.478Z,100074.09
